sensor_id;sensor_type;location;lat;lon;timestamp;pressure;altitude;pressure_sealevel;temperature;humidity
10510;BME280;5303;53.266;10.410;2023-07-29T00:02:05;100512.00;;;18.95;100.00
10510;BME280;5303;53.266;10.410;2023-07-29T00:04:30;100517.50;;;18.92;100.00
10510;BME280;5303;53.266;10.410;2023-07-29T00:06:56;100517.59;;;18.89;100.00
10510;BME280;5303;53.266;10.410;2023-07-29T00:09:21;100507.97;;;18.85;100.00
10510;BME280;5303;53.266;10.410;2023-07-29T00:11:46;100509.94;;;18.82;100.00
10510;BME280;5303;53.266;10.410;2023-07-29T00:14:12;100503.75;;;18.80;100.00
10510;BME280;5303;53.266;10.410;2023-07-29T00:16:37;100495.81;;;18.78;100.00
10510;BME280;5303;53.266;10.410;2023-07-29T00:19:02;100505.69;;;18.76;100.00
10510;BME280;5303;53.266;10.410;2023-07-29T00:21:28;100489.78;;;18.73;100.00
10510;BME280;5303;53.266;10.410;2023-07-29T00:23:53;100492.59;;;18.70;100.00
10510;BME280;5303;53.266;10.410;2023-07-29T00:26:18;100488.16;;;18.69;100.00
10510;BME280;5303;53.266;10.410;2023-07-29T00:28:43;100494.44;;;18.68;100.00
10510;BME280;5303;53.266;10.410;2023-07-29T00:31:09;100489.25;;;18.65;100.00
10510;BME280;5303;53.266;10.410;2023-07-29T00:33:34;100488.53;;;18.60;100.00
10510;BME280;5303;53.266;10.410;2023-07-29T00:35:59;100476.22;;;18.56;100.00
10510;BME280;5303;53.266;10.410;2023-07-29T00:38:28;100473.69;;;18.53;100.00
10510;BME280;5303;53.266;10.410;2023-07-29T00:40:54;100472.88;;;18.51;100.00
10510;BME280;5303;53.266;10.410;2023-07-29T00:43:20;100463.19;;;18.48;100.00
10510;BME280;5303;53.266;10.410;2023-07-29T00:45:46;100470.31;;;18.48;100.00
10510;BME280;5303;53.266;10.410;2023-07-29T00:48:12;100468.72;;;18.43;100.00
10510;BME280;5303;53.266;10.410;2023-07-29T00:50:37;100465.25;;;18.41;100.00
10510;BME280;5303;53.266;10.410;2023-07-29T00:53:02;100466.22;;;18.39;100.00
10510;BME280;5303;53.266;10.410;2023-07-29T00:55:28;100461.88;;;18.36;100.00
10510;BME280;5303;53.266;10.410;2023-07-29T00:57:53;100465.47;;;18.35;100.00
10510;BME280;5303;53.266;10.410;2023-07-29T01:00:20;100463.75;;;18.34;100.00
10510;BME280;5303;53.266;10.410;2023-07-29T01:02:45;100467.34;;;18.33;100.00
10510;BME280;5303;53.266;10.410;2023-07-29T01:05:12;100463.75;;;18.34;100.00
10510;BME280;5303;53.266;10.410;2023-07-29T01:14:05;100454.81;;;18.35;100.00
10510;BME280;5303;53.266;10.410;2023-07-29T01:16:36;100449.31;;;18.38;100.00
10510;BME280;5303;53.266;10.410;2023-07-29T01:19:05;100445.75;;;18.39;100.00
10510;BME280;5303;53.266;10.410;2023-07-29T01:21:35;100447.50;;;18.40;100.00
10510;BME280;5303;53.266;10.410;2023-07-29T01:24:02;100447.34;;;18.43;100.00
10510;BME280;5303;53.266;10.410;2023-07-29T01:26:27;100449.16;;;18.43;100.00
10510;BME280;5303;53.266;10.410;2023-07-29T01:28:55;100450.81;;;18.46;100.00
10510;BME280;5303;53.266;10.410;2023-07-29T01:31:31;100449.81;;;18.48;100.00
10510;BME280;5303;53.266;10.410;2023-07-29T01:34:04;100446.19;;;18.51;100.00
10510;BME280;5303;53.266;10.410;2023-07-29T01:36:32;100446.97;;;18.53;100.00
10510;BME280;5303;53.266;10.410;2023-07-29T01:39:01;100441.50;;;18.56;100.00
10510;BME280;5303;53.266;10.410;2023-07-29T01:41:28;100432.69;;;18.54;100.00
10510;BME280;5303;53.266;10.410;2023-07-29T01:43:55;100434.28;;;18.58;100.00
10510;BME280;5303;53.266;10.410;2023-07-29T01:46:21;100435.34;;;18.54;100.00
10510;BME280;5303;53.266;10.410;2023-07-29T01:48:46;100441.56;;;18.54;100.00
10510;BME280;5303;53.266;10.410;2023-07-29T01:51:12;100436.16;;;18.56;100.00
10510;BME280;5303;53.266;10.410;2023-07-29T01:53:37;100433.53;;;18.54;100.00
10510;BME280;5303;53.266;10.410;2023-07-29T01:56:03;100436.16;;;18.56;100.00
10510;BME280;5303;53.266;10.410;2023-07-29T01:58:28;100427.97;;;18.60;100.00
10510;BME280;5303;53.266;10.410;2023-07-29T02:00:54;100429.75;;;18.60;100.00
10510;BME280;5303;53.266;10.410;2023-07-29T02:03:19;100439.63;;;18.58;100.00
10510;BME280;5303;53.266;10.410;2023-07-29T02:05:44;100438.69;;;18.59;100.00
10510;BME280;5303;53.266;10.410;2023-07-29T02:08:10;100434.41;;;18.55;100.00
10510;BME280;5303;53.266;10.410;2023-07-29T02:10:36;100436.16;;;18.56;100.00
10510;BME280;5303;53.266;10.410;2023-07-29T02:13:03;100424.66;;;18.54;100.00
10510;BME280;5303;53.266;10.410;2023-07-29T02:15:29;100420.25;;;18.53;100.00
10510;BME280;5303;53.266;10.410;2023-07-29T02:17:54;100419.47;;;18.51;100.00
10510;BME280;5303;53.266;10.410;2023-07-29T02:20:20;100422.25;;;18.48;100.00
10510;BME280;5303;53.266;10.410;2023-07-29T02:22:45;100418.91;;;18.42;100.00
10510;BME280;5303;53.266;10.410;2023-07-29T02:25:10;100421.66;;;18.41;100.00
10510;BME280;5303;53.266;10.410;2023-07-29T02:27:36;100420.56;;;18.45;100.00
10510;BME280;5303;53.266;10.410;2023-07-29T02:30:02;100416.47;;;18.36;100.00
10510;BME280;5303;53.266;10.410;2023-07-29T02:32:27;100419.41;;;18.30;100.00
10510;BME280;5303;53.266;10.410;2023-07-29T02:34:53;100421.25;;;18.28;100.00
10510;BME280;5303;53.266;10.410;2023-07-29T02:37:18;100421.41;;;18.25;100.00
10510;BME280;5303;53.266;10.410;2023-07-29T02:39:44;100419.91;;;18.18;100.00
10510;BME280;5303;53.266;10.410;2023-07-29T02:42:09;100427.09;;;18.16;100.00
10510;BME280;5303;53.266;10.410;2023-07-29T02:44:34;100429.09;;;18.11;100.00
10510;BME280;5303;53.266;10.410;2023-07-29T02:47:00;100423.75;;;18.11;100.00
10510;BME280;5303;53.266;10.410;2023-07-29T02:49:25;100413.19;;;18.08;100.00
10510;BME280;5303;53.266;10.410;2023-07-29T02:51:50;100411.47;;;18.07;100.00
10510;BME280;5303;53.266;10.410;2023-07-29T02:54:16;100411.59;;;18.04;100.00
10510;BME280;5303;53.266;10.410;2023-07-29T02:56:41;100407.19;;;18.03;100.00
10510;BME280;5303;53.266;10.410;2023-07-29T02:59:06;100408.13;;;18.02;100.00
10510;BME280;5303;53.266;10.410;2023-07-29T03:01:32;100402.91;;;17.99;100.00
10510;BME280;5303;53.266;10.410;2023-07-29T03:03:57;100403.88;;;17.96;100.00
10510;BME280;5303;53.266;10.410;2023-07-29T03:06:22;100405.69;;;17.96;100.00
10510;BME280;5303;53.266;10.410;2023-07-29T03:08:48;100403.94;;;17.95;100.00
10510;BME280;5303;53.266;10.410;2023-07-29T03:11:14;100407.63;;;17.92;100.00
10510;BME280;5303;53.266;10.410;2023-07-29T03:13:40;100404.16;;;17.90;100.00
10510;BME280;5303;53.266;10.410;2023-07-29T03:16:13;100400.69;;;17.88;100.00
10510;BME280;5303;53.266;10.410;2023-07-29T03:18:39;100409.66;;;17.85;100.00
10510;BME280;5303;53.266;10.410;2023-07-29T03:21:05;100404.38;;;17.84;100.00
10510;BME280;5303;53.266;10.410;2023-07-29T03:23:31;100409.72;;;17.84;100.00
10510;BME280;5303;53.266;10.410;2023-07-29T03:25:57;100409.59;;;17.87;100.00
10510;BME280;5303;53.266;10.410;2023-07-29T03:28:28;100417.59;;;17.87;100.00
10510;BME280;5303;53.266;10.410;2023-07-29T03:30:56;100418.34;;;17.91;100.00
10510;BME280;5303;53.266;10.410;2023-07-29T03:33:22;100424.50;;;17.93;100.00
10510;BME280;5303;53.266;10.410;2023-07-29T03:35:47;100416.56;;;17.91;100.00
10510;BME280;5303;53.266;10.410;2023-07-29T03:38:13;100419.03;;;17.96;100.00
10510;BME280;5303;53.266;10.410;2023-07-29T03:40:39;100418.06;;;17.98;100.00
10510;BME280;5303;53.266;10.410;2023-07-29T03:43:05;100420.59;;;18.01;100.00
10510;BME280;5303;53.266;10.410;2023-07-29T03:45:31;100422.28;;;18.04;100.00
10510;BME280;5303;53.266;10.410;2023-07-29T03:47:56;100418.59;;;18.06;100.00
10510;BME280;5303;53.266;10.410;2023-07-29T03:50:21;100407.84;;;18.08;100.00
10510;BME280;5303;53.266;10.410;2023-07-29T03:52:47;100409.63;;;18.09;100.00
10510;BME280;5303;53.266;10.410;2023-07-29T03:55:12;100401.59;;;18.09;100.00
10510;BME280;5303;53.266;10.410;2023-07-29T03:57:37;100404.28;;;18.09;100.00
10510;BME280;5303;53.266;10.410;2023-07-29T04:00:03;100411.47;;;18.07;100.00
10510;BME280;5303;53.266;10.410;2023-07-29T04:02:28;100415.94;;;18.06;100.00
10510;BME280;5303;53.266;10.410;2023-07-29T04:04:54;100414.97;;;18.09;100.00
10510;BME280;5303;53.266;10.410;2023-07-29T04:07:19;100406.97;;;18.07;100.00
10510;BME280;5303;53.266;10.410;2023-07-29T04:09:44;100407.06;;;18.06;100.00
10510;BME280;5303;53.266;10.410;2023-07-29T04:12:10;100406.97;;;18.07;100.00
10510;BME280;5303;53.266;10.410;2023-07-29T04:14:35;100412.28;;;18.09;100.00
10510;BME280;5303;53.266;10.410;2023-07-29T04:17:00;100407.75;;;18.11;100.00
10510;BME280;5303;53.266;10.410;2023-07-29T04:19:26;100409.34;;;18.15;100.00
10510;BME280;5303;53.266;10.410;2023-07-29T04:21:51;100408.25;;;18.21;100.00
10510;BME280;5303;53.266;10.410;2023-07-29T04:24:16;100403.56;;;18.26;100.00
10510;BME280;5303;53.266;10.410;2023-07-29T04:26:42;100399.53;;;18.37;100.00
10510;BME280;5303;53.266;10.410;2023-07-29T04:29:07;100407.69;;;18.55;100.00
10510;BME280;5303;53.266;10.410;2023-07-29T04:31:32;100414.75;;;18.78;100.00
10510;BME280;5303;53.266;10.410;2023-07-29T04:33:58;100404.94;;;18.98;100.00
10510;BME280;5303;53.266;10.410;2023-07-29T04:36:23;100402.47;;;19.14;100.00
10510;BME280;5303;53.266;10.410;2023-07-29T04:38:49;100401.38;;;19.58;100.00
10510;BME280;5303;53.266;10.410;2023-07-29T04:41:14;100401.81;;;19.86;100.00
10510;BME280;5303;53.266;10.410;2023-07-29T04:43:39;100398.81;;;19.92;100.00
10510;BME280;5303;53.266;10.410;2023-07-29T04:46:07;100398.19;;;19.87;100.00
10510;BME280;5303;53.266;10.410;2023-07-29T04:48:33;100395.31;;;19.73;100.00
10510;BME280;5303;53.266;10.410;2023-07-29T04:50:59;100389.09;;;19.72;100.00
10510;BME280;5303;53.266;10.410;2023-07-29T04:53:24;100386.78;;;19.65;100.00
10510;BME280;5303;53.266;10.410;2023-07-29T04:55:49;100392.34;;;19.60;100.00
10510;BME280;5303;53.266;10.410;2023-07-29T04:58:14;100391.41;;;19.61;100.00
10510;BME280;5303;53.266;10.410;2023-07-29T05:00:40;100388.09;;;19.56;100.00
10510;BME280;5303;53.266;10.410;2023-07-29T05:03:05;100388.09;;;19.56;100.00
10510;BME280;5303;53.266;10.410;2023-07-29T05:05:31;100387.34;;;19.52;100.00
10510;BME280;5303;53.266;10.410;2023-07-29T05:07:57;100389.06;;;19.53;100.00
10510;BME280;5303;53.266;10.410;2023-07-29T05:10:22;100392.72;;;19.51;100.00
10510;BME280;5303;53.266;10.410;2023-07-29T05:12:47;100388.53;;;19.66;100.00
10510;BME280;5303;53.266;10.410;2023-07-29T05:15:13;100380.66;;;19.63;100.00
10510;BME280;5303;53.266;10.410;2023-07-29T05:17:38;100378.25;;;19.56;100.00
10510;BME280;5303;53.266;10.410;2023-07-29T05:20:03;100379.09;;;19.57;100.00
10510;BME280;5303;53.266;10.410;2023-07-29T05:22:29;100379.19;;;19.55;100.00
10510;BME280;5303;53.266;10.410;2023-07-29T05:24:54;100373.13;;;19.50;100.00
10510;BME280;5303;53.266;10.410;2023-07-29T05:27:19;100376.19;;;19.62;100.00
10510;BME280;5303;53.266;10.410;2023-07-29T05:29:45;100378.94;;;19.79;100.00
10510;BME280;5303;53.266;10.410;2023-07-29T05:32:10;100380.97;;;19.93;100.00
10510;BME280;5303;53.266;10.410;2023-07-29T05:34:35;100382.31;;;20.01;100.00
10510;BME280;5303;53.266;10.410;2023-07-29T05:37:01;100379.81;;;19.98;100.00
10510;BME280;5303;53.266;10.410;2023-07-29T05:39:26;100370.97;;;19.96;100.00
10510;BME280;5303;53.266;10.410;2023-07-29T05:41:51;100378.34;;;19.91;100.00
10510;BME280;5303;53.266;10.410;2023-07-29T05:44:16;100381.84;;;19.93;100.00
10510;BME280;5303;53.266;10.410;2023-07-29T05:46:42;100385.00;;;20.01;100.00
10510;BME280;5303;53.266;10.410;2023-07-29T05:49:07;100390.78;;;20.11;100.00
10510;BME280;5303;53.266;10.410;2023-07-29T05:51:32;100390.41;;;20.19;100.00
10510;BME280;5303;53.266;10.410;2023-07-29T05:53:57;100381.13;;;20.26;100.00
10510;BME280;5303;53.266;10.410;2023-07-29T05:56:23;100378.44;;;20.26;100.00
10510;BME280;5303;53.266;10.410;2023-07-29T05:58:48;100367.72;;;20.26;100.00
10510;BME280;5303;53.266;10.410;2023-07-29T06:01:13;100367.50;;;20.30;100.00
10510;BME280;5303;53.266;10.410;2023-07-29T06:03:38;100369.94;;;20.35;100.00
10510;BME280;5303;53.266;10.410;2023-07-29T06:06:04;100377.56;;;20.44;100.00
10510;BME280;5303;53.266;10.410;2023-07-29T06:08:29;100377.66;;;20.41;100.00
10510;BME280;5303;53.266;10.410;2023-07-29T06:10:54;100371.69;;;20.53;100.00
10510;BME280;5303;53.266;10.410;2023-07-29T06:13:20;100384.41;;;20.67;100.00
10510;BME280;5303;53.266;10.410;2023-07-29T06:15:45;100372.50;;;20.73;100.00
10510;BME280;5303;53.266;10.410;2023-07-29T06:18:10;100380.84;;;20.84;100.00
10510;BME280;5303;53.266;10.410;2023-07-29T06:20:36;100378.81;;;20.89;100.00
10510;BME280;5303;53.266;10.410;2023-07-29T06:23:01;100374.38;;;20.88;100.00
10510;BME280;5303;53.266;10.410;2023-07-29T06:25:27;100364.91;;;20.81;100.00
10510;BME280;5303;53.266;10.410;2023-07-29T06:27:52;100363.03;;;20.83;100.00
10510;BME280;5303;53.266;10.410;2023-07-29T06:30:17;100356.56;;;20.87;100.00
10510;BME280;5303;53.266;10.410;2023-07-29T06:32:43;100354.94;;;20.84;100.00
10510;BME280;5303;53.266;10.410;2023-07-29T06:35:08;100352.28;;;20.83;100.00
10510;BME280;5303;53.266;10.410;2023-07-29T06:37:33;100356.69;;;21.01;100.00
10510;BME280;5303;53.266;10.410;2023-07-29T06:39:59;100349.50;;;21.02;100.00
10510;BME280;5303;53.266;10.410;2023-07-29T06:42:24;100345.78;;;21.04;100.00
10510;BME280;5303;53.266;10.410;2023-07-29T06:44:49;100344.19;;;21.17;100.00
10510;BME280;5303;53.266;10.410;2023-07-29T06:47:14;100349.09;;;21.26;100.00
10510;BME280;5303;53.266;10.410;2023-07-29T06:49:40;100350.16;;;21.40;100.00
10510;BME280;5303;53.266;10.410;2023-07-29T06:52:05;100359.59;;;21.47;100.00
10510;BME280;5303;53.266;10.410;2023-07-29T06:54:30;100339.78;;;21.49;100.00
10510;BME280;5303;53.266;10.410;2023-07-29T06:56:56;100340.38;;;21.54;100.00
10510;BME280;5303;53.266;10.410;2023-07-29T06:59:21;100343.50;;;21.47;100.00
10510;BME280;5303;53.266;10.410;2023-07-29T07:01:46;100344.34;;;21.63;100.00
10510;BME280;5303;53.266;10.410;2023-07-29T07:04:12;100339.34;;;21.73;100.00
10510;BME280;5303;53.266;10.410;2023-07-29T07:06:37;100343.31;;;21.81;100.00
10510;BME280;5303;53.266;10.410;2023-07-29T07:09:03;100342.78;;;21.91;100.00
10510;BME280;5303;53.266;10.410;2023-07-29T07:11:28;100345.63;;;22.03;100.00
10510;BME280;5303;53.266;10.410;2023-07-29T07:13:53;100345.91;;;22.14;100.00
10510;BME280;5303;53.266;10.410;2023-07-29T07:16:19;100347.00;;;22.26;100.00
10510;BME280;5303;53.266;10.410;2023-07-29T07:18:44;100340.66;;;22.27;100.00
10510;BME280;5303;53.266;10.410;2023-07-29T07:21:09;100347.31;;;22.36;100.00
10510;BME280;5303;53.266;10.410;2023-07-29T07:23:34;100351.84;;;22.35;100.00
10510;BME280;5303;53.266;10.410;2023-07-29T07:26:01;100342.88;;;22.51;100.00
10510;BME280;5303;53.266;10.410;2023-07-29T07:28:26;100337.31;;;22.68;100.00
10510;BME280;5303;53.266;10.410;2023-07-29T07:30:52;100343.84;;;22.64;100.00
10510;BME280;5303;53.266;10.410;2023-07-29T07:33:17;100347.41;;;22.64;100.00
10510;BME280;5303;53.266;10.410;2023-07-29T07:35:43;100343.75;;;22.51;100.00
10510;BME280;5303;53.266;10.410;2023-07-29T07:38:08;100345.81;;;22.46;100.00
10510;BME280;5303;53.266;10.410;2023-07-29T07:40:35;100338.84;;;22.58;100.00
10510;BME280;5303;53.266;10.410;2023-07-29T07:43:00;100343.78;;;22.35;100.00
10510;BME280;5303;53.266;10.410;2023-07-29T07:45:26;100346.63;;;22.18;100.00
10510;BME280;5303;53.266;10.410;2023-07-29T07:47:52;100350.06;;;22.20;100.00
10510;BME280;5303;53.266;10.410;2023-07-29T07:50:18;100346.84;;;22.29;100.00
10510;BME280;5303;53.266;10.410;2023-07-29T07:52:43;100348.28;;;22.35;100.00
10510;BME280;5303;53.266;10.410;2023-07-29T07:55:09;100344.38;;;22.40;100.00
10510;BME280;5303;53.266;10.410;2023-07-29T07:57:34;100347.16;;;22.39;100.00
10510;BME280;5303;53.266;10.410;2023-07-29T07:59:59;100346.91;;;22.58;100.00
10510;BME280;5303;53.266;10.410;2023-07-29T08:02:24;100350.88;;;22.66;100.00
10510;BME280;5303;53.266;10.410;2023-07-29T08:04:50;100347.38;;;22.50;100.00
10510;BME280;5303;53.266;10.410;2023-07-29T08:07:15;100349.03;;;22.67;100.00
10510;BME280;5303;53.266;10.410;2023-07-29T08:09:40;100337.72;;;22.76;100.00
10510;BME280;5303;53.266;10.410;2023-07-29T08:12:06;100342.09;;;22.79;100.00
10510;BME280;5303;53.266;10.410;2023-07-29T08:14:31;100338.56;;;22.92;100.00
10510;BME280;5303;53.266;10.410;2023-07-29T08:16:56;100351.06;;;22.93;100.00
10510;BME280;5303;53.266;10.410;2023-07-29T08:19:22;100343.59;;;22.83;100.00
10510;BME280;5303;53.266;10.410;2023-07-29T08:21:47;100339.09;;;22.83;100.00
10510;BME280;5303;53.266;10.410;2023-07-29T08:24:12;100337.81;;;22.90;100.00
10510;BME280;5303;53.266;10.410;2023-07-29T08:26:38;100331.63;;;22.88;100.00
10510;BME280;5303;53.266;10.410;2023-07-29T08:29:03;100324.91;;;22.95;100.00
10510;BME280;5303;53.266;10.410;2023-07-29T08:31:28;100321.34;;;22.95;100.00
10510;BME280;5303;53.266;10.410;2023-07-29T08:33:54;100326.34;;;22.87;100.00
10510;BME280;5303;53.266;10.410;2023-07-29T08:36:19;100336.75;;;22.77;100.00
10510;BME280;5303;53.266;10.410;2023-07-29T08:38:44;100327.53;;;22.67;100.00
10510;BME280;5303;53.266;10.410;2023-07-29T08:41:25;100325.63;;;22.69;100.00
10510;BME280;5303;53.266;10.410;2023-07-29T08:44:01;100331.53;;;22.46;100.00
10510;BME280;5303;53.266;10.410;2023-07-29T08:46:32;100339.91;;;22.25;100.00
10510;BME280;5303;53.266;10.410;2023-07-29T08:48:58;100332.56;;;22.13;100.00
10510;BME280;5303;53.266;10.410;2023-07-29T08:51:26;100336.03;;;21.99;100.00
10510;BME280;5303;53.266;10.410;2023-07-29T08:53:52;100338.38;;;21.90;100.00
10510;BME280;5303;53.266;10.410;2023-07-29T08:56:18;100338.63;;;21.85;100.00
10510;BME280;5303;53.266;10.410;2023-07-29T08:58:43;100331.00;;;21.93;100.00
10510;BME280;5303;53.266;10.410;2023-07-29T09:01:09;100325.19;;;21.85;100.00
10510;BME280;5303;53.266;10.410;2023-07-29T09:03:34;100324.88;;;21.75;100.00
10510;BME280;5303;53.266;10.410;2023-07-29T09:05:59;100325.31;;;21.68;100.00
10510;BME280;5303;53.266;10.410;2023-07-29T09:08:27;100332.06;;;21.59;100.00
10510;BME280;5303;53.266;10.410;2023-07-29T09:10:54;100326.94;;;21.54;100.00
10510;BME280;5303;53.266;10.410;2023-07-29T09:13:20;100336.41;;;21.46;100.00
10510;BME280;5303;53.266;10.410;2023-07-29T09:15:45;100338.19;;;21.12;100.00
10510;BME280;5303;53.266;10.410;2023-07-29T09:18:18;100356.44;;;20.55;100.00
10510;BME280;5303;53.266;10.410;2023-07-29T09:20:47;100369.50;;;20.08;100.00
10510;BME280;5303;53.266;10.410;2023-07-29T09:23:13;100385.59;;;19.51;100.00
10510;BME280;5303;53.266;10.410;2023-07-29T09:25:39;100389.19;;;19.32;100.00
10510;BME280;5303;53.266;10.410;2023-07-29T09:28:12;100398.50;;;19.23;100.00
10510;BME280;5303;53.266;10.410;2023-07-29T09:30:44;100381.38;;;19.27;100.00
10510;BME280;5303;53.266;10.410;2023-07-29T09:33:09;100395.53;;;19.29;100.00
10510;BME280;5303;53.266;10.410;2023-07-29T09:35:36;100391.91;;;19.30;100.00
10510;BME280;5303;53.266;10.410;2023-07-29T09:38:03;100389.03;;;19.35;100.00
10510;BME280;5303;53.266;10.410;2023-07-29T09:40:39;100387.88;;;19.40;100.00
10510;BME280;5303;53.266;10.410;2023-07-29T09:43:06;100391.66;;;19.36;100.00
10510;BME280;5303;53.266;10.410;2023-07-29T09:45:33;100383.53;;;19.38;100.00
10510;BME280;5303;53.266;10.410;2023-07-29T09:47:59;100376.97;;;19.45;100.00
10510;BME280;5303;53.266;10.410;2023-07-29T09:50:25;100389.19;;;19.50;100.00
10510;BME280;5303;53.266;10.410;2023-07-29T09:52:52;100386.78;;;19.65;100.00
10510;BME280;5303;53.266;10.410;2023-07-29T09:55:18;100387.50;;;19.68;100.00
10510;BME280;5303;53.266;10.410;2023-07-29T09:57:44;100388.53;;;19.66;100.00
10510;BME280;5303;53.266;10.410;2023-07-29T10:00:13;100389.97;;;19.73;100.00
10510;BME280;5303;53.266;10.410;2023-07-29T10:02:40;100397.41;;;19.85;100.00
10510;BME280;5303;53.266;10.410;2023-07-29T10:05:07;100398.47;;;20.00;100.00
10510;BME280;5303;53.266;10.410;2023-07-29T10:07:36;100402.06;;;20.18;100.00
10510;BME280;5303;53.266;10.410;2023-07-29T10:10:03;100392.47;;;20.31;100.00
10510;BME280;5303;53.266;10.410;2023-07-29T10:12:31;100388.13;;;20.28;100.00
10510;BME280;5303;53.266;10.410;2023-07-29T10:14:59;100384.44;;;20.31;100.00
10510;BME280;5303;53.266;10.410;2023-07-29T10:17:26;100379.84;;;20.33;100.00
10510;BME280;5303;53.266;10.410;2023-07-29T10:19:52;100376.78;;;20.40;100.00
10510;BME280;5303;53.266;10.410;2023-07-29T10:22:20;100376.38;;;20.50;100.00
10510;BME280;5303;53.266;10.410;2023-07-29T10:24:47;100363.63;;;20.55;100.00
10510;BME280;5303;53.266;10.410;2023-07-29T10:27:17;100367.78;;;20.60;100.00
10510;BME280;5303;53.266;10.410;2023-07-29T10:29:43;100368.50;;;20.64;100.00
10510;BME280;5303;53.266;10.410;2023-07-29T10:32:11;100356.09;;;20.79;100.00
10510;BME280;5303;53.266;10.410;2023-07-29T10:34:36;100359.53;;;20.98;100.00
10510;BME280;5303;53.266;10.410;2023-07-29T10:37:03;100363.38;;;21.10;100.00
10510;BME280;5303;53.266;10.410;2023-07-29T10:39:37;100362.34;;;21.12;100.00
10510;BME280;5303;53.266;10.410;2023-07-29T10:42:05;100359.84;;;21.09;100.00
10510;BME280;5303;53.266;10.410;2023-07-29T10:47:16;100366.84;;;21.45;100.00
10510;BME280;5303;53.266;10.410;2023-07-29T10:49:46;100360.63;;;21.44;100.00
10510;BME280;5303;53.266;10.410;2023-07-29T10:52:27;100355.50;;;21.40;100.00
10510;BME280;5303;53.266;10.410;2023-07-29T10:54:53;100350.47;;;21.34;100.00
10510;BME280;5303;53.266;10.410;2023-07-29T10:57:36;100343.16;;;21.37;100.00
10510;BME280;5303;53.266;10.410;2023-07-29T11:00:03;100346.31;;;21.28;100.00
10510;BME280;5303;53.266;10.410;2023-07-29T11:02:31;100346.41;;;21.26;100.00
10510;BME280;5303;53.266;10.410;2023-07-29T11:04:57;100353.88;;;21.37;100.00
10510;BME280;5303;53.266;10.410;2023-07-29T11:07:23;100346.09;;;21.48;100.00
10510;BME280;5303;53.266;10.410;2023-07-29T11:10:02;100338.66;;;21.69;100.00
10510;BME280;5303;53.266;10.410;2023-07-29T11:17:36;100332.94;;;22.07;100.00
10510;BME280;5303;53.266;10.410;2023-07-29T11:20:03;100334.97;;;22.02;100.00
10510;BME280;5303;53.266;10.410;2023-07-29T11:22:29;100331.03;;;22.09;100.00
10510;BME280;5303;53.266;10.410;2023-07-29T11:24:54;100327.53;;;21.91;100.00
10510;BME280;5303;53.266;10.410;2023-07-29T11:27:20;100317.00;;;21.88;100.00
10510;BME280;5303;53.266;10.410;2023-07-29T11:29:46;100315.16;;;21.89;100.00
10510;BME280;5303;53.266;10.410;2023-07-29T11:32:12;100320.34;;;21.92;100.00
10510;BME280;5303;53.266;10.410;2023-07-29T11:34:37;100323.94;;;22.08;100.00
10510;BME280;5303;53.266;10.410;2023-07-29T11:37:05;100320.78;;;22.00;100.00
10510;BME280;5303;53.266;10.410;2023-07-29T11:39:31;100318.19;;;22.14;100.00
10510;BME280;5303;53.266;10.410;2023-07-29T11:41:57;100317.44;;;22.26;100.00
10510;BME280;5303;53.266;10.410;2023-07-29T11:44:23;100307.53;;;22.42;100.00
10510;BME280;5303;53.266;10.410;2023-07-29T11:46:48;100304.63;;;22.46;100.00
10510;BME280;5303;53.266;10.410;2023-07-29T11:49:14;100313.84;;;22.41;100.00
10510;BME280;5303;53.266;10.410;2023-07-29T11:51:41;100309.56;;;22.53;100.00
10510;BME280;5303;53.266;10.410;2023-07-29T11:54:06;100297.19;;;22.51;100.00
10510;BME280;5303;53.266;10.410;2023-07-29T11:56:32;100299.81;;;22.36;100.00
10510;BME280;5303;53.266;10.410;2023-07-29T11:58:57;100300.22;;;22.45;100.00
10510;BME280;5303;53.266;10.410;2023-07-29T12:01:23;100301.00;;;22.47;100.00
10510;BME280;5303;53.266;10.410;2023-07-29T12:03:50;100313.47;;;22.48;100.00
10510;BME280;5303;53.266;10.410;2023-07-29T12:06:16;100310.97;;;22.45;100.00
10510;BME280;5303;53.266;10.410;2023-07-29T12:08:42;100310.63;;;22.51;100.00
10510;BME280;5303;53.266;10.410;2023-07-29T12:11:08;100313.88;;;22.56;100.00
10510;BME280;5303;53.266;10.410;2023-07-29T12:13:36;100304.69;;;22.60;100.00
10510;BME280;5303;53.266;10.410;2023-07-29T12:16:02;100293.63;;;22.50;100.00
10510;BME280;5303;53.266;10.410;2023-07-29T12:18:32;100289.72;;;22.70;100.00
10510;BME280;5303;53.266;10.410;2023-07-29T12:20:57;100291.44;;;22.71;100.00
10510;BME280;5303;53.266;10.410;2023-07-29T12:23:26;100296.16;;;22.82;100.00
10510;BME280;5303;53.266;10.410;2023-07-29T12:25:58;100288.13;;;22.96;100.00
10510;BME280;5303;53.266;10.410;2023-07-29T12:28:24;100291.47;;;23.14;100.00
10510;BME280;5303;53.266;10.410;2023-07-29T12:30:56;100279.38;;;23.07;100.00
10510;BME280;5303;53.266;10.410;2023-07-29T12:33:37;100276.09;;;23.16;100.00
10510;BME280;5303;53.266;10.410;2023-07-29T12:36:04;100277.63;;;23.34;100.00
10510;BME280;5303;53.266;10.410;2023-07-29T12:38:29;100275.84;;;23.47;100.00
10510;BME280;5303;53.266;10.410;2023-07-29T12:40:55;100262.56;;;23.59;100.00
10510;BME280;5303;53.266;10.410;2023-07-29T12:43:21;100271.59;;;23.72;100.00
10510;BME280;5303;53.266;10.410;2023-07-29T12:45:46;100277.13;;;23.83;100.00
10510;BME280;5303;53.266;10.410;2023-07-29T12:48:13;100275.78;;;23.76;100.00
10510;BME280;5303;53.266;10.410;2023-07-29T12:50:41;100271.00;;;23.67;100.00